createdAt,value
2018-11-23T12:05:05.726Z,33.10
2018-11-23T12:07:33.257Z,29.57
2018-11-23T12:10:00.766Z,29.13
2018-11-23T12:12:28.308Z,32.67
2018-11-23T12:14:55.843Z,28.13
2018-11-23T12:17:23.593Z,30.37
2018-11-23T12:19:51.125Z,28.90
2018-11-23T12:22:18.654Z,32.30
2018-11-23T12:24:46.165Z,28.17
2018-11-23T12:27:13.687Z,26.90
2018-11-23T12:29:41.202Z,28.87
2018-11-23T12:32:08.737Z,27.17
2018-11-23T12:34:36.240Z,25.63
2018-11-23T12:37:04.177Z,27.50
2018-11-23T12:39:31.713Z,28.30
2018-11-23T12:41:59.270Z,28.53
2018-11-23T12:44:26.799Z,28.70
2018-11-23T12:46:54.392Z,28.07
2018-11-23T12:49:21.953Z,26.13
2018-11-23T12:51:49.525Z,24.27
2018-11-23T12:54:17.081Z,26.43
2018-11-23T12:56:44.633Z,28.97
2018-11-23T12:59:12.205Z,25.37
2018-11-23T13:01:39.786Z,26.27
2018-11-23T13:04:07.349Z,23.27
2018-11-23T13:06:34.946Z,28.33
2018-11-23T13:09:02.611Z,27.77
2018-11-23T13:11:37.110Z,25.10
2018-11-23T13:14:05.745Z,27.50
2018-11-23T13:16:50.453Z,28.17
2018-11-23T13:19:18.032Z,28.40
2018-11-23T13:21:45.749Z,27.47
2018-11-23T13:24:13.331Z,29.10
2018-11-23T13:26:40.895Z,31.20
2018-11-23T13:29:15.991Z,29.53
2018-11-23T13:31:36.109Z,29.90
2018-11-23T13:34:03.718Z,29.73
2018-11-23T13:36:31.300Z,33.10
2018-11-23T13:38:58.862Z,34.40
2018-11-23T13:41:26.434Z,30.90
2018-11-23T13:43:54.038Z,36.60
2018-11-23T13:46:21.605Z,33.23
2018-11-23T13:48:49.150Z,32.30
2018-11-23T13:51:16.723Z,33.57
2018-11-23T13:53:44.425Z,30.13
2018-11-23T13:56:11.985Z,29.37
2018-11-23T13:58:39.553Z,30.10
2018-11-23T14:01:07.113Z,31.13
2018-11-23T14:03:34.680Z,30.67
2018-11-23T14:06:02.263Z,32.77
2018-11-23T14:08:29.821Z,31.90
2018-11-23T14:10:57.363Z,32.07
2018-11-23T14:13:24.935Z,37.97
2018-11-23T14:15:52.496Z,35.37
2018-11-23T14:18:20.049Z,34.67
2018-11-23T14:20:47.603Z,35.87
2018-11-23T14:23:15.146Z,35.50
2018-11-23T14:25:42.688Z,40.60
2018-11-23T14:28:10.246Z,35.97
2018-11-23T14:30:37.798Z,36.77
2018-11-23T14:33:05.359Z,40.30
2018-11-23T14:35:33.765Z,38.10
2018-11-23T14:38:01.744Z,38.97
2018-11-23T14:40:29.285Z,39.30
2018-11-23T14:42:57.175Z,40.27
2018-11-23T14:45:34.817Z,39.13
2018-11-23T14:48:05.651Z,42.23
2018-11-23T14:50:34.694Z,40.67
2018-11-23T14:53:02.377Z,40.87
2018-11-23T14:55:30.311Z,41.63
2018-11-23T14:57:58.182Z,40.57
2018-11-23T15:00:34.552Z,40.27
2018-11-23T15:03:03.042Z,39.83
2018-11-23T15:05:30.657Z,40.83
2018-11-23T15:07:58.245Z,41.23
2018-11-23T15:10:27.248Z,38.10
2018-11-23T15:12:56.155Z,40.40
2018-11-23T15:15:26.208Z,43.10
2018-11-23T15:17:54.333Z,40.23
2018-11-23T15:20:28.425Z,41.73
2018-11-23T15:23:00.471Z,41.73
2018-11-23T15:25:28.054Z,44.80
2018-11-23T15:27:55.665Z,45.67
2018-11-23T15:30:24.931Z,42.87
2018-11-23T15:32:52.692Z,43.87
2018-11-23T15:35:20.307Z,43.37
2018-11-23T15:37:47.915Z,42.40
2018-11-23T15:40:18.887Z,37.80
2018-11-23T15:42:47.265Z,44.30
2018-11-23T15:45:16.349Z,43.70
2018-11-23T15:47:43.947Z,40.97
2018-11-23T15:50:16.111Z,43.13
2018-11-23T15:52:44.362Z,43.17
2018-11-23T15:55:15.534Z,40.73
2018-11-23T15:57:43.766Z,40.87
2018-11-23T16:00:17.573Z,40.60
2018-11-23T16:02:45.867Z,40.23
2018-11-23T16:05:13.740Z,42.80
2018-11-23T16:07:41.615Z,39.70
2018-11-23T16:10:18.305Z,43.80
2018-11-23T16:12:47.333Z,41.90
2018-11-23T16:15:15.305Z,40.17
2018-11-23T16:17:42.873Z,38.93
2018-11-23T16:20:14.022Z,39.20
2018-11-23T16:22:42.503Z,44.10
2018-11-23T16:25:10.869Z,44.47
2018-11-23T16:27:39.075Z,45.63
2018-11-23T16:30:13.558Z,40.83
2018-11-23T16:32:41.341Z,46.70
2018-11-23T16:35:08.894Z,44.30
2018-11-23T16:37:36.445Z,43.83
2018-11-23T16:40:06.700Z,43.27
2018-11-23T16:42:34.270Z,46.53
2018-11-23T16:45:01.826Z,44.67
2018-11-23T16:47:32.703Z,45.60
2018-11-23T16:50:00.245Z,44.57
2018-11-23T16:52:27.805Z,47.33
2018-11-23T16:54:55.345Z,44.90
2018-11-23T16:57:22.899Z,47.57
2018-11-23T16:59:50.471Z,47.20
2018-11-23T17:02:18.044Z,45.93
2018-11-23T17:04:45.618Z,46.13
2018-11-23T17:07:13.224Z,48.90
2018-11-23T17:09:40.783Z,46.80
2018-11-23T17:12:08.401Z,52.00
2018-11-23T17:14:35.950Z,49.30
2018-11-23T17:17:03.529Z,49.40
2018-11-23T17:19:46.291Z,45.57
2018-11-23T17:22:13.834Z,45.70
2018-11-23T17:24:41.373Z,50.67
2018-11-23T17:27:08.915Z,52.67
2018-11-23T17:29:36.472Z,51.40
2018-11-23T17:32:04.030Z,51.77
2018-11-23T17:34:31.589Z,54.77
2018-11-23T17:36:59.138Z,55.00
2018-11-23T17:39:26.701Z,50.43
2018-11-23T17:41:54.265Z,53.30
2018-11-23T17:44:21.796Z,51.37
2018-11-23T17:46:49.377Z,50.80
2018-11-23T17:49:16.943Z,51.37
2018-11-23T17:51:44.501Z,50.17
2018-11-23T17:54:12.103Z,50.37
2018-11-23T17:56:39.674Z,55.00
2018-11-23T17:59:07.266Z,55.77
2018-11-23T18:01:34.862Z,55.03
2018-11-23T18:04:02.466Z,51.73
2018-11-23T18:06:30.062Z,54.40
2018-11-23T18:08:57.881Z,51.97
2018-11-23T18:11:25.508Z,55.00
2018-11-23T18:13:53.106Z,49.90
2018-11-23T18:16:20.697Z,54.00
2018-11-23T18:18:48.281Z,51.27
2018-11-23T18:21:15.865Z,50.47
2018-11-23T18:23:43.468Z,48.30
2018-11-23T18:26:11.054Z,54.10
2018-11-23T18:28:38.640Z,55.80
2018-11-23T18:31:06.239Z,50.90
2018-11-23T18:33:33.824Z,51.00
2018-11-23T18:36:01.421Z,53.57
2018-11-23T18:38:28.994Z,58.93
2018-11-23T18:40:56.566Z,51.00
2018-11-23T18:43:24.161Z,56.33
2018-11-23T18:45:51.723Z,54.27
2018-11-23T18:48:19.329Z,57.67
2018-11-23T18:50:46.922Z,56.37
2018-11-23T18:53:14.502Z,56.60
2018-11-23T18:55:42.100Z,57.87
2018-11-23T18:58:09.698Z,54.43
2018-11-23T19:00:37.290Z,58.23
2018-11-23T19:03:05.401Z,53.83
2018-11-23T19:05:32.979Z,48.30
2018-11-23T19:08:00.563Z,50.50
2018-11-23T19:10:28.169Z,45.00
2018-11-23T19:12:55.765Z,50.73
2018-11-23T19:15:25.581Z,50.77
2018-11-23T19:17:51.003Z,54.27
2018-11-23T19:20:21.241Z,52.40
2018-11-23T19:22:51.453Z,50.33
2018-11-23T19:25:19.028Z,51.23
2018-11-23T19:27:46.611Z,47.77
2018-11-23T19:30:16.920Z,50.43
2018-11-23T19:32:44.534Z,49.50
2018-11-23T19:35:12.157Z,54.73
2018-11-23T19:37:39.711Z,49.53
2018-11-23T19:40:11.240Z,50.07
2018-11-23T19:43:00.253Z,54.90
2018-11-23T19:45:27.843Z,56.13
2018-11-23T19:48:09.022Z,58.27
2018-11-23T19:50:36.600Z,65.60
2018-11-23T19:53:04.189Z,77.33
2018-11-23T19:55:38.172Z,72.43
2018-11-23T19:58:05.763Z,76.77
2018-11-23T20:00:33.373Z,70.03
2018-11-23T20:03:00.952Z,67.43
2018-11-23T20:05:28.545Z,65.50
2018-11-23T20:07:56.699Z,64.33
2018-11-23T20:10:24.965Z,74.43
2018-11-23T20:12:54.721Z,66.13
2018-11-23T20:15:22.325Z,67.37
2018-11-23T20:17:49.892Z,60.40
2018-11-23T20:20:17.757Z,59.00
2018-11-23T20:22:46.733Z,59.17
2018-11-23T20:25:15.771Z,53.43
2018-11-23T20:27:44.131Z,54.30
2018-11-23T20:30:16.019Z,56.07
2018-11-23T20:32:43.666Z,50.67
2018-11-23T20:35:13.698Z,48.97
2018-11-23T20:37:41.276Z,48.90
2018-11-23T20:40:14.665Z,50.73
2018-11-23T20:42:42.229Z,50.97
2018-11-23T20:45:10.959Z,47.20
2018-11-23T20:47:38.602Z,46.80
2018-11-23T20:50:09.166Z,43.13
2018-11-23T20:52:36.731Z,49.07
2018-11-23T20:55:06.905Z,42.43
2018-11-23T20:57:34.505Z,42.67
2018-11-23T21:00:02.632Z,43.27
2018-11-23T21:02:30.253Z,42.67
2018-11-23T21:04:57.827Z,44.33
2018-11-23T21:07:25.407Z,44.20
2018-11-23T21:09:52.997Z,42.73
2018-11-23T21:12:20.587Z,40.07
2018-11-23T21:14:48.176Z,42.60
2018-11-23T21:17:15.798Z,42.87
2018-11-23T21:22:51.069Z,45.27
2018-11-23T21:25:18.637Z,42.67
2018-11-23T21:27:46.211Z,47.57
2018-11-23T21:30:15.599Z,48.53
2018-11-23T21:32:43.226Z,48.40
2018-11-23T21:35:11.624Z,50.13
2018-11-23T21:37:39.229Z,51.77
2018-11-23T21:40:11.366Z,54.60
2018-11-23T21:42:38.989Z,54.80
2018-11-23T21:45:27.507Z,51.10
2018-11-23T21:47:55.070Z,48.37
2018-11-23T21:50:25.544Z,44.73
2018-11-23T21:52:50.247Z,44.20
2018-11-23T21:55:21.291Z,45.40
2018-11-23T21:57:49.357Z,46.37
2018-11-23T22:00:16.945Z,41.70
2018-11-23T22:02:44.520Z,37.63
2018-11-23T22:05:12.170Z,40.10
2018-11-23T22:10:49.776Z,39.97
2018-11-23T22:13:17.445Z,37.30
2018-11-23T22:15:45.155Z,46.43
2018-11-23T22:18:12.742Z,41.20
2018-11-23T22:20:40.345Z,41.40
2018-11-23T22:23:07.905Z,47.30
2018-11-23T22:25:35.493Z,50.07
2018-11-23T22:28:03.061Z,47.97
2018-11-23T22:30:30.897Z,49.57
2018-11-23T22:33:27.098Z,47.47
2018-11-23T22:35:54.673Z,50.40
2018-11-23T22:41:24.299Z,54.30
2018-11-23T22:43:51.870Z,55.70
2018-11-23T22:46:19.455Z,56.40
2018-11-23T22:48:47.081Z,58.97
2018-11-23T22:51:14.663Z,63.17
2018-11-23T22:53:42.225Z,62.20
2018-11-23T22:56:09.815Z,54.27
2018-11-23T22:58:37.382Z,56.87
2018-11-23T23:01:31.905Z,50.83
2018-11-23T23:03:59.474Z,56.33
2018-11-23T23:06:27.045Z,55.13
2018-11-23T23:08:54.617Z,49.67
2018-11-23T23:11:22.196Z,49.77
2018-11-23T23:13:49.756Z,48.83
2018-11-23T23:16:17.326Z,49.10
2018-11-23T23:18:44.885Z,52.97
2018-11-23T23:21:12.470Z,49.53
2018-11-23T23:23:40.034Z,51.80
2018-11-23T23:26:07.629Z,47.73
2018-11-23T23:28:35.226Z,50.33
2018-11-23T23:31:02.807Z,51.87
2018-11-23T23:33:30.385Z,55.00
2018-11-23T23:35:57.971Z,53.70
2018-11-23T23:38:25.534Z,53.33
2018-11-23T23:40:53.101Z,52.63
2018-11-23T23:43:20.658Z,54.97
2018-11-23T23:45:55.459Z,64.17
2018-11-23T23:48:23.032Z,58.70
2018-11-23T23:50:50.593Z,53.87
2018-11-23T23:53:18.142Z,64.97
2018-11-23T23:55:45.705Z,68.57
2018-11-23T23:58:13.245Z,61.57
